CET,Max TemperatureF,Mean TemperatureF,Min TemperatureF,Max Dew PointF,MeanDew PointF,Min DewpointF,Max Humidity, Mean Humidity, Min Humidity, Max Sea Level PressureIn, Mean Sea Level PressureIn, Min Sea Level PressureIn, Max VisibilityMiles, Mean VisibilityMiles, Min VisibilityMiles, Max Wind SpeedMPH, Mean Wind SpeedMPH, Max Gust SpeedMPH,PrecipitationIn, CloudCover, Events, WindDirDegrees
2012-11-1,71,65,59,55,53,50,82,69,46,29.71,29.53,29.24,6,6,6,31,18,46,0.00,2,,225
2012-11-2,71,63,55,57,52,46,88,69,41,30.01,29.88,29.74,6,6,6,21,11,,0.00,2,,234
2012-11-3,69,60,51,57,54,50,94,77,53,30.04,29.99,29.92,6,6,6,13,6,,0.00,3,,201
2012-11-4,77,68,59,64,61,57,94,77,65,29.92,29.81,29.68,6,6,6,15,4,,0.00,3,,182
2012-11-5,73,66,57,63,56,46,83,69,56,30.04,29.82,29.65,6,6,6,25,13,32,0.00,2,Rain,223
2012-11-6,64,60,55,57,49,45,100,69,49,30.15,30.07,30.01,6,6,6,16,13,,0.00,2,,238
2012-11-7,66,55,42,50,46,41,93,69,42,30.39,30.27,30.15,6,6,6,17,9,,0.00,2,,244
2012-11-8,64,53,42,54,48,41,100,85,64,30.39,30.29,30.21,,,,8,4,,0.00,,,192
2012-11-9,66,55,44,57,49,41,100,82,52,30.18,30.10,30.04,,,,10,4,,0.00,,,217
2012-11-10,73,60,48,63,57,48,100,91,65,30.04,29.93,29.83,6,5,4,7,4,,0.00,1,,226
2012-11-11,66,62,57,63,59,55,100,93,73,29.98,29.85,29.74,6,6,2,15,4,30,0.00,5,Rain-Thunderstorm,218
2012-11-12,68,64,59,66,63,59,100,96,88,30.15,30.03,29.98,6,5,2,6,3,,0.00,5,Rain-Thunderstorm,245
2012-11-13,69,66,62,68,64,63,100,96,88,30.18,30.15,30.12,6,4,2,12,5,,0.00,5,Rain,66
2012-11-14,64,63,62,64,61,57,100,92,77,30.18,30.13,30.09,6,6,5,17,11,,0.00,4,,40
2012-11-15,62,56,51,57,55,50,100,82,68,30.12,30.09,30.06,6,6,6,12,8,,0.00,4,,17
2012-11-16,64,56,48,55,51,48,100,87,68,30.09,30.07,30.04,6,6,6,9,4,,0.00,2,,195
2012-11-17,62,52,42,54,50,41,100,90,72,30.09,29.99,29.92,6,6,4,10,4,,0.00,1,,199
2012-11-18,60,55,50,59,54,50,100,97,88,29.92,29.85,29.83,6,5,2,6,3,,0.00,4,Rain,213
2012-11-19,60,58,55,59,57,54,100,96,88,29.92,29.85,29.80,6,4,1,12,6,,0.00,6,Rain,268
2012-11-20,66,60,55,57,55,54,100,86,64,30.04,29.97,29.92,6,6,6,8,4,,0.00,3,,249
2012-11-21,68,60,51,55,53,48,100,85,52,30.15,30.08,30.04,6,6,6,16,6,,0.00,1,,226
2012-11-22,66,58,50,57,53,50,100,90,64,30.21,30.18,30.15,6,6,6,8,5,,0.00,1,,199
2012-11-23,69,58,46,55,52,46,100,84,53,30.27,30.21,30.18,6,6,6,12,5,,0.00,1,,211
2012-11-24,64,53,42,59,51,41,100,93,77,30.27,30.24,30.21,5,3,0,8,4,,0.00,,Fog,209
2012-11-25,64,53,42,55,50,43,100,90,64,30.24,30.19,30.15,6,6,6,7,4,,0.00,,Fog,218
2012-11-26,68,54,41,55,48,39,100,89,63,30.15,30.05,29.92,6,6,6,8,4,,0.00,,Fog,207
2012-11-27,62,52,42,55,50,43,100,91,72,29.92,29.73,29.53,6,6,5,6,2,,0.00,3,,225
2012-11-28,59,52,46,52,48,43,100,85,59,29.50,29.32,29.24,6,6,5,18,6,30,0.00,4,Rain-Thunderstorm,207
2012-11-29,57,52,46,50,45,39,88,79,66,29.42,29.31,29.21,6,6,6,30,14,44,0.00,4,Rain,219
2012-11-30,55,50,41,39,38,34,87,63,44,29.65,29.52,29.42,6,6,6,23,15,37,0.00,2,,219